createdAt,value
2022-12-24T00:01:20.090Z,4.60
2022-12-24T00:03:47.964Z,4.10
2022-12-24T00:06:21.389Z,3.95
2022-12-24T00:08:48.960Z,3.92
2022-12-24T00:11:15.893Z,4.32
2022-12-24T00:13:42.978Z,4.00
2022-12-24T00:16:10.057Z,4.40
2022-12-24T00:18:43.381Z,4.22
2022-12-24T00:21:12.839Z,5.00
2022-12-24T00:23:40.932Z,3.47
2022-12-24T00:26:08.224Z,3.87
2022-12-24T00:28:35.256Z,4.00
2022-12-24T00:31:10.190Z,4.00
2022-12-24T00:33:37.369Z,3.47
2022-12-24T00:36:04.706Z,3.22
2022-12-24T00:38:31.716Z,3.55
2022-12-24T00:41:04.751Z,3.90
2022-12-24T00:43:32.619Z,3.67
2022-12-24T00:46:00.567Z,3.75
2022-12-24T00:48:27.639Z,3.77
2022-12-24T00:50:54.687Z,4.28
2022-12-24T00:53:21.822Z,3.90
2022-12-24T00:55:48.842Z,3.50
2022-12-24T00:58:15.885Z,4.50
2022-12-24T01:00:42.839Z,3.90
2022-12-24T01:03:09.967Z,3.63
2022-12-24T01:05:37.008Z,3.83
2022-12-24T01:08:04.207Z,4.07
2022-12-24T01:10:31.329Z,3.72
2022-12-24T01:13:01.655Z,4.32
2022-12-24T01:15:29.677Z,3.70
2022-12-24T01:17:58.207Z,3.80
2022-12-24T01:20:27.089Z,3.42
2022-12-24T01:22:54.135Z,3.63
2022-12-24T01:25:21.245Z,4.70
2022-12-24T01:27:48.184Z,3.92
2022-12-24T01:30:15.890Z,4.10
2022-12-24T01:32:43.016Z,4.53
2022-12-24T01:35:10.559Z,4.15
2022-12-24T01:37:37.606Z,3.63
2022-12-24T01:40:25.697Z,3.92
2022-12-24T01:43:12.485Z,4.15
2022-12-24T01:45:58.775Z,4.28
2022-12-24T01:48:36.137Z,3.65
2022-12-24T01:51:16.956Z,4.50
2022-12-24T01:53:49.465Z,4.57
2022-12-24T01:56:18.722Z,4.55
2022-12-24T01:58:54.414Z,4.63
2022-12-24T02:01:21.562Z,3.58
2022-12-24T02:03:48.887Z,3.78
2022-12-24T02:06:19.428Z,3.60
2022-12-24T02:08:46.860Z,4.05
2022-12-24T02:11:21.079Z,4.30
2022-12-24T02:14:00.449Z,3.60
2022-12-24T02:17:04.539Z,3.85
2022-12-24T02:19:55.719Z,3.92
2022-12-24T02:22:46.888Z,4.47
2022-12-24T02:26:13.831Z,3.40
2022-12-24T02:29:09.726Z,3.92
2022-12-24T02:31:44.706Z,3.50
2022-12-24T02:34:29.884Z,3.95
2022-12-24T02:37:12.398Z,3.58
2022-12-24T02:39:54.454Z,3.75
2022-12-24T02:42:30.535Z,4.25
2022-12-24T02:45:04.213Z,4.27
2022-12-24T02:47:34.266Z,3.72
2022-12-24T02:50:03.639Z,3.60
2022-12-24T02:52:39.715Z,4.25
2022-12-24T02:55:38.876Z,4.00
2022-12-24T02:58:51.721Z,4.28
2022-12-24T03:01:47.777Z,3.67
2022-12-24T03:04:40.860Z,4.03
2022-12-24T03:07:23.706Z,4.65
2022-12-24T03:10:17.916Z,4.20
2022-12-24T03:12:54.687Z,3.70
2022-12-24T03:15:25.939Z,3.95
2022-12-24T03:17:58.143Z,3.95
2022-12-24T03:20:47.677Z,4.07
2022-12-24T03:23:15.440Z,3.25
2022-12-24T03:25:45.406Z,3.65
2022-12-24T03:28:16.546Z,3.23
2022-12-24T03:30:48.853Z,3.80
2022-12-24T03:33:16.984Z,4.00
2022-12-24T03:35:44.477Z,4.30
2022-12-24T03:38:11.513Z,3.92
2022-12-24T03:40:38.621Z,4.40
2022-12-24T03:43:05.640Z,4.07
2022-12-24T03:45:32.745Z,4.28
2022-12-24T03:47:59.792Z,4.27
2022-12-24T03:50:26.765Z,3.92
2022-12-24T03:52:55.372Z,4.03
2022-12-24T03:55:22.701Z,4.03
2022-12-24T03:57:49.769Z,4.55
2022-12-24T04:00:17.773Z,3.90
2022-12-24T04:02:44.813Z,3.78
2022-12-24T04:05:18.279Z,3.60
2022-12-24T04:07:45.872Z,4.28
2022-12-24T04:10:14.501Z,3.33
2022-12-24T04:12:41.672Z,4.25
2022-12-24T04:15:10.244Z,4.20
2022-12-24T04:17:37.223Z,3.63
2022-12-24T04:20:04.943Z,4.40
2022-12-24T04:22:32.577Z,4.47
2022-12-24T04:24:59.590Z,4.20
2022-12-24T04:27:30.339Z,3.83
2022-12-24T04:29:57.986Z,4.10
2022-12-24T04:32:27.232Z,4.18
2022-12-24T04:34:54.261Z,4.32
2022-12-24T04:37:21.361Z,4.00
2022-12-24T04:39:48.433Z,4.50
2022-12-24T04:42:15.563Z,4.30
2022-12-24T04:44:42.568Z,3.85
2022-12-24T04:47:10.829Z,4.25
2022-12-24T04:49:37.968Z,3.65
2022-12-24T04:52:05.492Z,4.03
2022-12-24T04:54:32.489Z,3.90
2022-12-24T04:56:59.502Z,3.97
2022-12-24T04:59:26.480Z,4.32
2022-12-24T05:01:53.648Z,4.20
2022-12-24T05:04:20.842Z,4.63
2022-12-24T05:06:47.798Z,3.80
2022-12-24T05:09:14.805Z,3.92
2022-12-24T05:11:41.828Z,3.78
2022-12-24T05:14:08.787Z,4.88
2022-12-24T05:16:35.987Z,4.13
2022-12-24T05:19:03.041Z,3.80
2022-12-24T05:21:30.079Z,3.50
2022-12-24T05:24:15.706Z,4.15
2022-12-24T05:26:57.553Z,3.90
2022-12-24T05:29:24.927Z,3.40
2022-12-24T05:31:52.087Z,3.30
2022-12-24T05:34:19.131Z,3.38
2022-12-24T05:36:46.373Z,3.63
2022-12-24T05:39:17.658Z,3.65
2022-12-24T05:41:47.328Z,3.70
2022-12-24T05:44:16.289Z,4.30
2022-12-24T05:46:44.056Z,3.20
2022-12-24T05:49:11.140Z,3.45
2022-12-24T05:51:38.203Z,3.92
2022-12-24T05:54:05.308Z,4.35
2022-12-24T05:56:32.884Z,4.03
2022-12-24T05:59:00.262Z,4.50
2022-12-24T06:01:27.496Z,4.07
2022-12-24T06:03:54.576Z,3.92
2022-12-24T06:06:25.469Z,4.18
2022-12-24T06:08:54.428Z,3.40
2022-12-24T06:11:25.046Z,4.35
2022-12-24T06:13:53.577Z,3.30
2022-12-24T06:16:21.881Z,4.10
2022-12-24T06:18:49.051Z,3.83
2022-12-24T06:21:17.142Z,3.65
2022-12-24T06:23:45.718Z,4.30
2022-12-24T06:26:16.247Z,3.87
2022-12-24T06:28:44.948Z,3.83
2022-12-24T06:31:16.226Z,3.80
2022-12-24T06:33:43.864Z,3.83
2022-12-24T06:36:17.776Z,3.78
2022-12-24T06:38:47.193Z,4.53
2022-12-24T06:41:14.774Z,4.35
2022-12-24T06:43:51.027Z,3.57
2022-12-24T06:46:19.958Z,3.13
2022-12-24T06:48:47.357Z,4.05
2022-12-24T06:51:16.062Z,4.22
2022-12-24T06:53:43.218Z,3.22
2022-12-24T06:56:13.429Z,4.03
2022-12-24T06:58:41.170Z,3.92
2022-12-24T07:01:13.726Z,4.20
2022-12-24T07:03:42.212Z,3.45
2022-12-24T07:06:24.702Z,4.05
2022-12-24T07:08:52.063Z,4.00
2022-12-24T07:11:19.247Z,3.63
2022-12-24T07:13:47.473Z,3.92
2022-12-24T07:16:14.626Z,3.38
2022-12-24T07:18:41.863Z,3.95
2022-12-24T07:21:09.222Z,3.83
2022-12-24T07:23:36.360Z,4.38
2022-12-24T07:26:05.646Z,3.72
2022-12-24T07:28:33.253Z,4.10
2022-12-24T07:31:03.837Z,3.85
2022-12-24T07:33:31.378Z,3.47
2022-12-24T07:36:10.838Z,3.47
2022-12-24T07:38:38.528Z,3.53
2022-12-24T07:41:05.795Z,3.87
2022-12-24T07:43:33.919Z,3.13
2022-12-24T07:46:04.181Z,3.47
2022-12-24T07:48:33.033Z,3.35
2022-12-24T07:51:00.827Z,4.10
2022-12-24T07:53:30.804Z,3.97
2022-12-24T07:55:58.398Z,4.13
2022-12-24T07:58:26.258Z,3.70
2022-12-24T08:00:59.412Z,3.63
2022-12-24T08:03:27.345Z,3.67
2022-12-24T08:05:54.990Z,3.70
2022-12-24T08:08:25.385Z,3.42
2022-12-24T08:10:52.744Z,3.10
2022-12-24T08:13:19.901Z,3.47
2022-12-24T08:15:47.067Z,3.65
2022-12-24T08:18:14.124Z,4.22
2022-12-24T08:20:41.976Z,3.58
2022-12-24T08:23:09.551Z,3.63
2022-12-24T08:25:37.226Z,4.05
2022-12-24T08:28:05.719Z,4.13
2022-12-24T08:30:32.980Z,3.78
2022-12-24T08:33:00.115Z,3.92
2022-12-24T08:35:27.189Z,4.30
2022-12-24T08:37:54.502Z,3.80
2022-12-24T08:40:21.778Z,3.75
2022-12-24T08:42:49.091Z,4.05
2022-12-24T08:45:16.530Z,3.80
2022-12-24T08:47:43.772Z,3.30
2022-12-24T08:50:11.725Z,4.00
2022-12-24T08:52:39.141Z,4.15
2022-12-24T08:55:09.432Z,4.13
2022-12-24T08:57:37.628Z,3.83
2022-12-24T09:00:09.585Z,4.00
2022-12-24T09:02:36.719Z,3.95
2022-12-24T09:05:06.801Z,4.07
2022-12-24T09:07:33.901Z,4.03
2022-12-24T09:10:01.007Z,3.88
2022-12-24T09:12:28.149Z,4.03
2022-12-24T09:15:01.223Z,3.97
2022-12-24T09:17:30.308Z,3.88
2022-12-24T09:19:57.388Z,4.50
2022-12-24T09:22:24.476Z,3.70
2022-12-24T09:24:54.052Z,4.30
2022-12-24T09:27:21.092Z,3.83
2022-12-24T09:29:48.215Z,4.13
2022-12-24T09:32:15.384Z,4.17
2022-12-24T09:34:42.524Z,4.10
2022-12-24T09:37:09.593Z,3.85
2022-12-24T09:39:36.609Z,3.97
2022-12-24T09:42:49.929Z,3.97
2022-12-24T09:45:28.749Z,4.40
2022-12-24T09:48:14.200Z,3.97
2022-12-24T09:50:55.456Z,3.72
2022-12-24T09:53:57.386Z,3.83
2022-12-24T09:56:46.536Z,4.32
2022-12-24T09:59:24.878Z,4.15
2022-12-24T10:01:55.015Z,3.90
2022-12-24T10:04:29.562Z,3.80
2022-12-24T10:07:32.406Z,4.30
2022-12-24T10:10:23.933Z,3.45
2022-12-24T10:13:22.381Z,3.47
2022-12-24T10:16:15.566Z,4.67
2022-12-24T10:19:01.439Z,4.07
2022-12-24T10:22:20.923Z,3.55
2022-12-24T10:25:34.766Z,4.55
2022-12-24T10:28:06.431Z,4.10
2022-12-24T10:30:34.717Z,4.10
2022-12-24T10:33:02.138Z,3.67
2022-12-24T10:35:53.569Z,4.15
2022-12-24T10:38:20.600Z,3.65
2022-12-24T10:40:55.542Z,4.00
2022-12-24T10:43:26.383Z,4.28
2022-12-24T10:46:07.479Z,4.77
2022-12-24T10:49:04.210Z,4.35
2022-12-24T10:51:43.349Z,4.30
2022-12-24T10:54:26.955Z,4.65
2022-12-24T10:57:00.818Z,4.57
2022-12-24T10:59:43.514Z,4.40
2022-12-24T11:02:39.588Z,4.38
2022-12-24T11:05:28.857Z,4.40
2022-12-24T11:08:17.092Z,4.18
2022-12-24T11:11:01.410Z,4.13
2022-12-24T11:13:40.176Z,4.53
2022-12-24T11:16:35.705Z,4.50
2022-12-24T11:19:16.626Z,4.32
2022-12-24T11:21:43.943Z,3.95
2022-12-24T11:24:14.097Z,4.60
2022-12-24T11:26:44.538Z,4.93
2022-12-24T11:29:24.760Z,4.07
2022-12-24T11:31:53.121Z,4.65
2022-12-24T11:34:32.644Z,4.93
2022-12-24T11:37:15.501Z,3.80
2022-12-24T11:39:50.860Z,4.70
2022-12-24T11:42:23.755Z,4.05
2022-12-24T11:44:51.336Z,4.45
2022-12-24T11:47:31.654Z,4.18
2022-12-24T11:50:47.757Z,4.43
2022-12-24T11:53:24.224Z,3.75
2022-12-24T11:55:56.363Z,3.92
2022-12-24T11:58:41.428Z,3.67
2022-12-24T12:01:26.887Z,4.07
2022-12-24T12:04:15.008Z,3.83
2022-12-24T12:06:55.511Z,3.78
2022-12-24T12:09:33.617Z,3.67
2022-12-24T12:12:26.308Z,4.03
2022-12-24T12:15:03.898Z,3.72
2022-12-24T12:17:43.914Z,3.73
2022-12-24T12:20:34.387Z,3.35
2022-12-24T12:23:50.780Z,3.40
2022-12-24T12:26:26.330Z,3.50
2022-12-24T12:29:18.588Z,4.10
2022-12-24T12:31:51.622Z,3.87
2022-12-24T12:34:32.039Z,4.22
2022-12-24T12:37:24.826Z,3.08
2022-12-24T12:39:51.939Z,3.92
2022-12-24T12:42:38.685Z,4.20
2022-12-24T12:45:50.701Z,3.95
2022-12-24T12:48:48.875Z,3.90
2022-12-24T12:51:40.182Z,4.07
2022-12-24T12:54:42.594Z,3.92
2022-12-24T12:57:17.272Z,3.88
2022-12-24T12:59:57.176Z,4.05
2022-12-24T13:02:39.365Z,3.60
2022-12-24T13:05:33.886Z,4.47
2022-12-24T13:08:37.481Z,4.25
2022-12-24T13:11:44.567Z,4.07
2022-12-24T13:15:08.172Z,3.63
2022-12-24T13:17:56.846Z,4.22
2022-12-24T13:20:29.729Z,3.95
2022-12-24T13:23:20.973Z,4.23
2022-12-24T13:25:57.136Z,4.72
2022-12-24T13:28:24.157Z,4.88
2022-12-24T13:31:20.120Z,4.80
2022-12-24T13:33:57.011Z,4.47
2022-12-24T13:36:24.623Z,4.43
2022-12-24T13:39:00.059Z,4.22
2022-12-24T13:41:41.421Z,4.72
2022-12-24T13:44:13.428Z,5.30
2022-12-24T13:46:50.321Z,5.22
2022-12-24T13:49:34.830Z,5.30
2022-12-24T13:52:23.876Z,5.67
2022-12-24T13:55:04.072Z,5.25
2022-12-24T13:57:45.343Z,5.28
2022-12-24T14:00:22.475Z,5.32
2022-12-24T14:02:56.872Z,5.82
2022-12-24T14:05:53.645Z,6.22
2022-12-24T14:08:23.422Z,5.53
2022-12-24T14:11:16.400Z,5.40
2022-12-24T14:13:46.047Z,4.60
2022-12-24T14:16:28.636Z,4.82
2022-12-24T14:19:14.067Z,4.68
2022-12-24T14:22:02.660Z,5.20
2022-12-24T14:24:38.003Z,6.10
2022-12-24T14:27:41.216Z,4.45
2022-12-24T14:30:21.066Z,4.63
2022-12-24T14:32:50.120Z,4.78
2022-12-24T14:35:23.516Z,5.13
2022-12-24T14:38:05.646Z,5.10
2022-12-24T14:40:59.735Z,4.57
2022-12-24T14:43:50.980Z,5.68
2022-12-24T14:46:47.990Z,4.72
2022-12-24T14:49:51.812Z,4.80
2022-12-24T14:55:34.950Z,4.28
2022-12-24T14:58:25.797Z,4.57
2022-12-24T15:01:02.939Z,5.05
2022-12-24T15:03:32.632Z,4.60
2022-12-24T15:06:06.835Z,4.60
2022-12-24T15:08:48.592Z,4.15
2022-12-24T15:11:22.372Z,4.47
2022-12-24T15:13:57.658Z,4.07
2022-12-24T15:16:34.508Z,4.32
2022-12-24T15:19:17.768Z,4.47
2022-12-24T15:21:44.895Z,4.55
2022-12-24T15:24:43.597Z,4.20
2022-12-24T15:27:26.571Z,3.85
2022-12-24T15:29:58.344Z,4.53
2022-12-24T15:32:25.481Z,4.30
2022-12-24T15:34:56.349Z,4.20
2022-12-24T15:37:38.083Z,3.75
2022-12-24T15:40:24.621Z,4.13
2022-12-24T15:42:52.730Z,4.20
2022-12-24T15:45:31.463Z,4.13
2022-12-24T15:48:08.393Z,4.50
2022-12-24T15:50:47.062Z,3.95
2022-12-24T15:53:28.434Z,4.23
2022-12-24T15:56:04.448Z,4.03
2022-12-24T15:58:43.389Z,4.03
2022-12-24T16:01:13.344Z,4.03
2022-12-24T16:04:02.440Z,4.00
2022-12-24T16:06:52.249Z,4.15
2022-12-24T16:09:42.205Z,7.77
2022-12-24T16:12:22.509Z,11.20
2022-12-24T16:14:57.644Z,8.90
2022-12-24T16:17:30.971Z,8.35
2022-12-24T16:20:06.048Z,8.90
2022-12-24T16:22:35.326Z,11.40
2022-12-24T16:25:27.949Z,11.32
2022-12-24T16:27:59.864Z,9.10
2022-12-24T16:30:27.587Z,8.60
2022-12-24T16:32:54.589Z,7.13
2022-12-24T16:35:28.867Z,6.68
2022-12-24T16:37:56.235Z,5.93
2022-12-24T16:40:27.189Z,6.03
2022-12-24T16:43:13.156Z,5.40
2022-12-24T16:45:40.331Z,5.70
2022-12-24T16:48:08.919Z,5.30
2022-12-24T16:50:36.653Z,5.97
2022-12-24T16:53:03.658Z,6.07
2022-12-24T16:55:30.673Z,5.70
2022-12-24T16:57:57.619Z,6.20
2022-12-24T17:00:25.720Z,6.43
2022-12-24T17:02:53.440Z,5.82
2022-12-24T17:05:24.005Z,5.93
2022-12-24T17:07:51.548Z,6.10
2022-12-24T17:10:18.785Z,5.93
2022-12-24T17:12:45.785Z,5.88
2022-12-24T17:15:13.105Z,5.78
2022-12-24T17:17:40.173Z,6.88
2022-12-24T17:20:08.306Z,25.95
2022-12-24T17:22:36.910Z,31.35
2022-12-24T17:25:05.669Z,20.15
2022-12-24T17:27:33.567Z,13.55
2022-12-24T17:30:00.552Z,10.73
2022-12-24T17:32:27.850Z,9.75
2022-12-24T17:34:54.797Z,9.68
2022-12-24T17:37:21.932Z,9.07
2022-12-24T17:39:48.939Z,8.63
2022-12-24T17:42:16.164Z,7.20
2022-12-24T17:44:43.167Z,7.83
2022-12-24T17:47:10.545Z,7.60
2022-12-24T17:49:37.736Z,7.57
2022-12-24T17:52:04.921Z,7.65
2022-12-24T17:54:32.477Z,7.60
2022-12-24T17:56:59.651Z,8.52
2022-12-24T17:59:26.677Z,7.77
2022-12-24T18:01:53.870Z,8.38
2022-12-24T18:04:20.967Z,7.40
2022-12-24T18:06:49.752Z,7.00
2022-12-24T18:09:17.301Z,7.78
2022-12-24T18:11:44.469Z,8.00
2022-12-24T18:14:14.146Z,7.45
2022-12-24T18:16:42.400Z,7.22
2022-12-24T18:19:12.180Z,7.88
2022-12-24T18:21:40.226Z,7.05
2022-12-24T18:24:09.055Z,6.65
2022-12-24T18:26:36.214Z,6.25
2022-12-24T18:29:08.816Z,6.43
2022-12-24T18:31:36.584Z,6.30
2022-12-24T18:34:07.172Z,6.85
2022-12-24T18:36:34.585Z,5.63
2022-12-24T18:39:02.169Z,6.35
2022-12-24T18:41:31.226Z,6.35
2022-12-24T18:43:59.857Z,5.80
2022-12-24T18:46:33.386Z,5.90
2022-12-24T18:49:01.504Z,5.70
2022-12-24T18:51:35.393Z,6.40
2022-12-24T18:54:05.801Z,6.50
2022-12-24T18:56:32.896Z,6.25
2022-12-24T18:59:02.409Z,6.10
2022-12-24T19:01:33.177Z,6.78
2022-12-24T19:04:01.416Z,5.95
2022-12-24T19:06:28.706Z,6.55
2022-12-24T19:08:57.581Z,6.10
2022-12-24T19:11:27.662Z,6.18
2022-12-24T19:13:54.737Z,6.63
2022-12-24T19:16:22.156Z,5.90
2022-12-24T19:18:50.329Z,6.00
2022-12-24T19:21:18.259Z,7.28
2022-12-24T19:23:46.470Z,7.00
2022-12-24T19:26:15.916Z,8.07
2022-12-24T19:28:43.403Z,7.83
2022-12-24T19:31:14.359Z,9.10
2022-12-24T19:33:56.476Z,8.82
2022-12-24T19:36:27.913Z,7.15
2022-12-24T19:38:56.708Z,7.53
2022-12-24T19:41:27.882Z,6.93
2022-12-24T19:43:58.700Z,6.88
2022-12-24T19:46:34.838Z,7.30
2022-12-24T19:49:05.814Z,7.28
2022-12-24T19:51:34.638Z,7.40
2022-12-24T19:54:02.148Z,7.15
2022-12-24T19:56:31.530Z,7.25
2022-12-24T19:58:59.975Z,7.15
2022-12-24T20:01:30.977Z,6.57
2022-12-24T20:03:58.668Z,6.53
2022-12-24T20:06:30.719Z,7.75
2022-12-24T20:09:07.697Z,6.90
2022-12-24T20:11:35.451Z,6.63
2022-12-24T20:14:04.533Z,7.15
2022-12-24T20:16:32.368Z,7.03
2022-12-24T20:19:03.622Z,7.40
2022-12-24T20:21:31.533Z,6.95
2022-12-24T20:23:58.828Z,7.68
2022-12-24T20:26:28.724Z,7.18
2022-12-24T20:28:56.600Z,7.07
2022-12-24T20:31:27.751Z,6.85
2022-12-24T20:33:57.160Z,6.65
2022-12-24T20:36:24.957Z,6.55
2022-12-24T20:38:53.005Z,6.35
2022-12-24T20:41:23.043Z,7.03
2022-12-24T20:43:50.534Z,6.70
2022-12-24T20:46:20.751Z,6.00
2022-12-24T20:48:48.763Z,6.35
2022-12-24T20:51:24.405Z,6.05
2022-12-24T20:53:54.395Z,6.45
2022-12-24T20:56:21.882Z,6.20
2022-12-24T20:58:49.515Z,6.40
2022-12-24T21:01:21.593Z,6.35
2022-12-24T21:03:48.686Z,6.50
2022-12-24T21:06:17.896Z,6.60
2022-12-24T21:08:48.578Z,6.60
2022-12-24T21:11:34.361Z,6.78
2022-12-24T21:14:02.184Z,5.95
2022-12-24T21:16:34.295Z,6.72
2022-12-24T21:19:01.423Z,6.75
2022-12-24T21:21:28.844Z,6.10
2022-12-24T21:23:55.841Z,5.43
2022-12-24T21:26:23.287Z,5.78
2022-12-24T21:28:50.605Z,5.68
2022-12-24T21:31:18.292Z,5.53
2022-12-24T21:33:46.036Z,5.80
2022-12-24T21:36:14.426Z,5.28
2022-12-24T21:38:41.885Z,5.40
2022-12-24T21:41:17.260Z,6.38
2022-12-24T21:43:46.108Z,6.32
2022-12-24T21:46:18.614Z,5.85
2022-12-24T21:49:04.727Z,6.05
2022-12-24T21:51:32.365Z,5.40
2022-12-24T21:54:17.861Z,5.22
2022-12-24T21:57:03.645Z,5.97
2022-12-24T21:59:31.041Z,5.68
2022-12-24T22:01:58.489Z,5.63
2022-12-24T22:04:26.214Z,5.90
2022-12-24T22:07:12.240Z,5.55
2022-12-24T22:09:59.038Z,5.43
2022-12-24T22:12:32.004Z,5.88
2022-12-24T22:14:59.525Z,5.07
2022-12-24T22:17:28.333Z,5.47
2022-12-24T22:19:55.990Z,5.03
2022-12-24T22:22:23.771Z,5.13
2022-12-24T22:24:50.960Z,5.27
2022-12-24T22:27:18.053Z,5.55
2022-12-24T22:29:45.362Z,5.50
2022-12-24T22:32:12.500Z,5.00
2022-12-24T22:34:39.578Z,5.33
2022-12-24T22:37:06.641Z,5.30
2022-12-24T22:39:33.838Z,5.25
2022-12-24T22:42:00.910Z,5.17
2022-12-24T22:44:28.074Z,5.22
2022-12-24T22:46:55.053Z,4.68
2022-12-24T22:49:22.214Z,4.75
2022-12-24T22:51:49.410Z,4.68
2022-12-24T22:54:16.427Z,5.50
2022-12-24T22:56:43.689Z,5.27
2022-12-24T22:59:13.884Z,5.35
2022-12-24T23:01:44.719Z,5.00
2022-12-24T23:04:13.336Z,5.30
2022-12-24T23:06:41.679Z,4.95
2022-12-24T23:09:11.792Z,4.82
2022-12-24T23:11:40.534Z,4.30
2022-12-24T23:14:32.344Z,5.10
2022-12-24T23:16:59.387Z,4.53
2022-12-24T23:19:26.468Z,4.60
2022-12-24T23:21:53.426Z,4.50
2022-12-24T23:24:20.640Z,4.50
2022-12-24T23:26:47.621Z,4.70
2022-12-24T23:29:14.724Z,4.47
2022-12-24T23:31:41.785Z,4.65
2022-12-24T23:34:08.871Z,5.10
2022-12-24T23:36:35.914Z,4.57
2022-12-24T23:39:03.080Z,3.72
2022-12-24T23:41:30.137Z,4.23
2022-12-24T23:43:57.077Z,4.70
2022-12-24T23:46:24.134Z,4.50
2022-12-24T23:48:55.163Z,4.30
2022-12-24T23:51:25.554Z,4.53
2022-12-24T23:53:54.614Z,4.95
2022-12-24T23:56:23.290Z,3.60
2022-12-24T23:58:50.549Z,4.50
